Time;durP1;ratioP1;P1;durP2;ratioP2;P2;SDS_P1;SDS_P2;PMS_P1;PMS_P2;Temp;Humidity;BMP_temperature;BMP_pressure;BME280_temperature;BME280_humidity;BME280_pressure;Samples;Min_cycle;Max_cycle;Signal;HPM_P1;HPM_P2
2023/10/08 00:01:42;;;;;;;2.25;1.05;;;14.00;99.90;;;;;;5064900;28;20055;-67
2023/10/08 00:04:10;;;;;;;1.90;0.98;;;13.90;99.90;;;;;;5064924;28;20044;-67
2023/10/08 00:06:37;;;;;;;2.40;1.00;;;14.00;99.90;;;;;;5064648;28;20627;-67
2023/10/08 00:09:07;;;;;;;1.88;0.95;;;13.90;99.90;;;;;;5063610;28;20094;-67
2023/10/08 00:11:36;;;;;;;1.45;0.60;;;13.90;99.90;;;;;;5047579;28;20335;-67
2023/10/08 00:14:04;;;;;;;1.80;0.60;;;13.80;99.90;;;;;;5064641;28;20036;-67
2023/10/08 00:16:33;;;;;;;2.40;0.70;;;13.70;99.90;;;;;;5047895;28;20049;-67
2023/10/08 00:19:07;;;;;;;1.35;0.60;;;13.80;99.90;;;;;;5048403;28;20425;-67
2023/10/08 00:21:35;;;;;;;2.47;0.60;;;13.70;99.90;;;;;;5064413;28;20114;-67
2023/10/08 00:24:05;;;;;;;3.47;0.63;;;13.70;99.90;;;;;;5064059;28;20074;-67
2023/10/08 00:26:31;;;;;;;3.28;0.70;;;13.70;99.90;;;;;;5063390;28;20045;-67
2023/10/08 00:29:06;;;;;;;2.45;0.60;;;13.70;99.90;;;;;;5065071;28;20059;-67
2023/10/08 00:31:40;;;;;;;1.48;0.68;;;13.70;99.90;;;;;;5047635;28;20044;-67
2023/10/08 00:34:08;;;;;;;2.72;0.63;;;13.70;99.90;;;;;;5064782;28;20048;-67
2023/10/08 00:36:34;;;;;;;2.72;0.50;;;13.70;99.90;;;;;;5065238;28;20545;-67
2023/10/08 00:39:00;;;;;;;2.17;0.60;;;13.70;99.90;;;;;;5048010;28;20101;-68
2023/10/08 00:41:30;;;;;;;1.70;0.73;;;13.70;99.90;;;;;;5063046;28;20417;-67
2023/10/08 00:43:59;;;;;;;4.17;0.80;;;13.70;99.90;;;;;;5064826;28;20052;-68
2023/10/08 00:46:35;;;;;;;3.67;0.60;;;13.70;99.90;;;;;;5064527;28;20488;-67
2023/10/08 00:52:18;;;;;;;3.40;0.70;;;13.70;99.90;;;;;;4993138;28;20129;-67
2023/10/08 00:57:25;;;;;;;0.80;0.60;;;13.70;99.90;;;;;;5065050;28;20083;-67
2023/10/08 00:59:54;;;;;;;3.63;0.95;;;13.70;99.90;;;;;;5063902;28;20562;-67
2023/10/08 01:02:27;;;;;;;1.90;0.65;;;13.60;99.90;;;;;;5047884;28;20416;-68
2023/10/08 01:04:54;;;;;;;3.17;0.70;;;13.60;99.90;;;;;;5064130;28;20045;-68
2023/10/08 01:07:21;;;;;;;2.13;0.60;;;13.60;99.90;;;;;;5047310;28;20127;-68
2023/10/08 01:09:51;;;;;;;1.80;0.47;;;13.70;99.90;;;;;;5047524;28;20153;-67
2023/10/08 01:12:26;;;;;;;2.85;0.50;;;13.70;99.90;;;;;;5064111;28;20491;-68
2023/10/08 01:14:56;;;;;;;3.95;0.60;;;13.60;99.90;;;;;;5045646;28;20060;-68
2023/10/08 01:17:27;;;;;;;1.67;0.52;;;13.70;99.90;;;;;;5060293;28;20436;-67
2023/10/08 01:22:39;;;;;;;1.23;0.43;;;13.90;99.90;;;;;;5063055;28;20048;-68
2023/10/08 01:25:05;;;;;;;2.08;0.63;;;13.70;99.90;;;;;;5045098;28;20040;-67
2023/10/08 01:27:34;;;;;;;2.45;0.70;;;13.70;99.90;;;;;;5045993;28;20047;-67
2023/10/08 01:30:17;;;;;;;5.05;1.20;;;13.70;99.90;;;;;;5062351;28;20091;-68
2023/10/08 01:32:44;;;;;;;1.98;0.60;;;13.70;99.90;;;;;;5043964;28;20040;-67
2023/10/08 01:35:22;;;;;;;4.05;0.70;;;13.70;99.90;;;;;;5065473;28;20048;-67
2023/10/08 01:37:50;;;;;;;4.47;0.88;;;13.70;99.90;;;;;;5063656;28;20060;-67
2023/10/08 01:40:17;;;;;;;2.75;0.50;;;13.70;99.90;;;;;;5061070;28;20044;-67
2023/10/08 01:42:43;;;;;;;3.40;0.90;;;13.70;99.90;;;;;;5064412;28;20056;-67
2023/10/08 01:45:12;;;;;;;3.55;0.80;;;13.70;99.90;;;;;;5060865;28;20052;-68
2023/10/08 01:47:38;;;;;;;2.30;0.70;;;13.70;99.90;;;;;;5063391;28;20106;-67
2023/10/08 01:50:07;;;;;;;4.22;0.70;;;13.60;99.90;;;;;;5063596;28;20059;-67
2023/10/08 01:52:34;;;;;;;3.78;0.98;;;13.60;99.90;;;;;;5061494;28;20045;-67
2023/10/08 01:55:00;;;;;;;1.98;0.68;;;13.70;99.90;;;;;;5063041;28;20079;-67
2023/10/08 01:57:25;;;;;;;2.90;0.88;;;13.70;99.90;;;;;;5063483;28;20079;-67
2023/10/08 01:59:51;;;;;;;3.05;0.90;;;13.70;99.90;;;;;;5061364;28;20052;-67
2023/10/08 02:02:17;;;;;;;6.50;1.15;;;13.70;99.90;;;;;;5062603;28;20044;-68
2023/10/08 02:04:43;;;;;;;4.68;0.85;;;13.70;99.90;;;;;;5062800;28;20060;-68
2023/10/08 02:07:12;;;;;;;2.40;0.70;;;13.70;99.90;;;;;;5062262;28;20528;-67
2023/10/08 02:09:39;;;;;;;2.03;0.80;;;13.70;99.90;;;;;;5046978;28;20043;-68
2023/10/08 02:12:05;;;;;;;2.88;0.70;;;13.70;99.90;;;;;;5062928;28;20041;-68
2023/10/08 02:14:31;;;;;;;4.15;1.05;;;13.60;99.90;;;;;;5062131;28;20044;-67
2023/10/08 02:17:04;;;;;;;5.18;0.88;;;13.70;99.90;;;;;;5063366;28;20048;-68
2023/10/08 02:19:29;;;;;;;2.60;0.70;;;13.60;99.90;;;;;;5061861;28;20062;-68
2023/10/08 02:21:56;;;;;;;3.33;0.73;;;13.70;99.90;;;;;;5062861;28;20588;-68
2023/10/08 02:24:25;;;;;;;1.27;0.65;;;13.70;99.90;;;;;;5046559;28;20139;-68
2023/10/08 02:26:52;;;;;;;1.40;0.70;;;13.70;99.90;;;;;;5045235;28;20163;-67
2023/10/08 02:29:19;;;;;;;6.25;0.88;;;13.70;99.90;;;;;;5062166;28;20037;-67
2023/10/08 02:31:44;;;;;;;2.63;0.68;;;13.70;99.90;;;;;;5042688;28;20055;-65
2023/10/08 02:34:12;;;;;;;3.92;1.00;;;13.70;99.90;;;;;;5063128;28;20036;-65
2023/10/08 02:36:43;;;;;;;2.50;0.80;;;13.70;99.90;;;;;;5043735;28;20476;-65
2023/10/08 02:39:21;;;;;;;2.53;0.90;;;13.70;99.90;;;;;;5062699;28;20052;-65
2023/10/08 02:41:49;;;;;;;4.57;0.90;;;13.70;99.90;;;;;;5059601;28;20067;-65
2023/10/08 02:44:16;;;;;;;3.80;0.98;;;13.70;99.90;;;;;;5061194;28;20052;-64
2023/10/08 02:46:51;;;;;;;4.13;0.80;;;13.70;99.90;;;;;;5044785;28;20068;-65
2023/10/08 02:49:22;;;;;;;7.28;0.90;;;13.60;99.90;;;;;;5061275;28;20421;-65
2023/10/08 02:51:51;;;;;;;3.05;0.77;;;13.70;99.90;;;;;;5061924;28;20037;-65
2023/10/08 02:54:31;;;;;;;2.10;0.80;;;13.70;99.90;;;;;;5045366;28;20052;-65
2023/10/08 02:56:58;;;;;;;4.75;0.90;;;13.70;99.90;;;;;;5062785;28;20048;-65
2023/10/08 02:59:28;;;;;;;4.40;0.90;;;13.70;99.90;;;;;;5062990;28;20052;-65
2023/10/08 03:01:56;;;;;;;2.88;0.70;;;13.70;99.90;;;;;;5060568;28;20054;-65
2023/10/08 03:04:22;;;;;;;3.38;1.05;;;13.60;99.90;;;;;;5073628;28;20254;-65
2023/10/08 03:06:49;;;;;;;2.78;0.85;;;13.60;99.90;;;;;;5064132;28;20224;-65
2023/10/08 03:09:31;;;;;;;1.75;0.63;;;13.60;99.90;;;;;;5048490;28;20044;-65
2023/10/08 03:11:58;;;;;;;;;;;13.60;99.90;;;;;;5064417;28;20052;-65
2023/10/08 03:14:26;;;;;;;2.50;0.85;;;13.70;99.90;;;;;;5066676;28;19928;-65
2023/10/08 03:16:58;;;;;;;3.40;0.80;;;13.70;99.90;;;;;;5065418;28;20052;-65
2023/10/08 03:19:24;;;;;;;3.38;1.00;;;13.70;99.90;;;;;;5067144;28;20056;-64
2023/10/08 03:22:03;;;;;;;4.65;1.08;;;13.70;99.90;;;;;;5066084;28;20056;-64
2023/10/08 03:24:29;;;;;;;1.67;0.80;;;13.70;99.90;;;;;;5065476;28;20131;-64
2023/10/08 03:27:05;;;;;;;3.42;1.05;;;13.70;99.90;;;;;;5047624;28;20147;-64
2023/10/08 03:29:32;;;;;;;4.68;0.82;;;13.70;99.90;;;;;;5064077;28;20052;-64
2023/10/08 03:31:58;;;;;;;3.60;1.00;;;13.70;99.90;;;;;;5065466;28;20040;-64
2023/10/08 03:34:28;;;;;;;7.90;1.02;;;13.60;99.90;;;;;;5065848;28;20041;-64
2023/10/08 03:37:05;;;;;;;2.10;0.85;;;13.60;99.90;;;;;;5065300;28;20060;-64
2023/10/08 03:39:50;;;;;;;3.22;0.73;;;13.70;99.90;;;;;;5067552;28;20377;-64
2023/10/08 03:42:23;;;;;;;3.50;0.93;;;13.70;99.90;;;;;;5062660;28;20055;-64
2023/10/08 03:44:51;;;;;;;5.72;1.20;;;13.70;99.90;;;;;;5060373;28;20050;-63
2023/10/08 03:47:22;;;;;;;5.88;1.38;;;13.60;99.90;;;;;;5064966;28;20044;-64
2023/10/08 03:49:51;;;;;;;6.88;0.90;;;13.70;99.90;;;;;;5048722;28;20044;-64
2023/10/08 03:52:25;;;;;;;3.55;1.15;;;13.60;99.90;;;;;;5065071;28;20677;-64
2023/10/08 03:55:13;;;;;;;6.00;1.17;;;13.60;99.90;;;;;;5065218;28;20071;-67
2023/10/08 03:57:48;;;;;;;4.60;1.10;;;13.60;99.90;;;;;;5065960;28;20466;-67
2023/10/08 04:00:18;;;;;;;3.17;0.82;;;13.60;99.90;;;;;;5064739;28;20119;-67
2023/10/08 04:02:54;;;;;;;5.70;1.17;;;13.60;99.90;;;;;;5065853;28;20064;-67
2023/10/08 04:05:27;;;;;;;5.63;1.23;;;13.60;99.90;;;;;;5062856;28;20126;-67
2023/10/08 04:13:01;;;;;;;3.10;1.13;;;13.60;99.90;;;;;;5064406;28;20071;-64
2023/10/08 04:15:27;;;;;;;4.60;1.25;;;13.60;99.90;;;;;;5065003;28;20044;-64
2023/10/08 04:17:53;;;;;;;5.32;1.20;;;13.60;99.90;;;;;;5063558;28;20045;-65
2023/10/08 04:20:32;;;;;;;5.30;1.23;;;13.60;99.90;;;;;;5065960;28;20051;-65
2023/10/08 04:23:04;;;;;;;4.28;1.00;;;13.60;99.90;;;;;;5063938;28;20891;-64
2023/10/08 04:25:31;;;;;;;4.25;1.10;;;13.60;99.90;;;;;;5046491;28;20040;-64
2023/10/08 04:27:58;;;;;;;3.80;1.10;;;13.60;99.90;;;;;;5056066;28;20157;-64
2023/10/08 04:30:32;;;;;;;4.63;1.10;;;13.60;99.90;;;;;;5059704;28;20044;-64
2023/10/08 04:33:12;;;;;;;5.30;1.05;;;13.60;99.90;;;;;;5060804;28;20873;-64
2023/10/08 04:35:51;;;;;;;4.00;1.00;;;13.60;99.90;;;;;;5050769;28;20041;-65
2023/10/08 04:38:23;;;;;;;5.90;1.20;;;13.60;99.90;;;;;;5055182;28;20128;-65
2023/10/08 04:40:51;;;;;;;3.80;1.10;;;13.60;99.90;;;;;;5059478;28;20139;-65
2023/10/08 04:43:27;;;;;;;9.20;1.40;;;13.60;99.90;;;;;;5062061;28;20048;-65
2023/10/08 04:46:18;;;;;;;3.25;0.93;;;13.60;99.90;;;;;;5047024;28;20225;-64
2023/10/08 04:48:49;;;;;;;5.90;1.15;;;13.60;99.90;;;;;;5062689;28;20063;-65
2023/10/08 04:51:17;;;;;;;4.60;1.02;;;13.60;99.90;;;;;;5062268;28;20036;-64
2023/10/08 04:53:45;;;;;;;8.45;1.60;;;13.60;99.90;;;;;;5065571;28;20052;-65
2023/10/08 04:56:18;;;;;;;7.05;1.40;;;13.60;99.90;;;;;;5063236;28;20524;-64
2023/10/08 04:58:47;;;;;;;8.32;1.58;;;13.60;99.90;;;;;;5060528;28;20060;-65
2023/10/08 05:01:17;;;;;;;5.15;1.30;;;13.60;99.90;;;;;;5058846;28;20040;-64
2023/10/08 05:08:59;;;;;;;4.90;1.40;;;13.60;99.90;;;;;;5074826;28;20122;-64
2023/10/08 05:11:36;;;;;;;6.35;1.58;;;13.50;99.90;;;;;;5041691;28;20497;-64
2023/10/08 05:14:05;;;;;;;8.90;1.42;;;13.70;99.90;;;;;;5062897;28;20406;-63
2023/10/08 05:17:00;;;;;;;6.40;1.40;;;13.50;99.90;;;;;;5061109;28;20056;-64
2023/10/08 05:59:53;;;;;;;8.82;1.30;;;13.40;99.90;;;;;;5075212;28;20052;-64
2023/10/08 06:13:06;;;;;;;5.95;1.50;;;13.40;99.90;;;;;;5044614;28;20051;-64
2023/10/08 06:18:26;;;;;;;6.80;1.27;;;13.30;99.90;;;;;;5045655;28;20084;-65
2023/10/08 06:20:54;;;;;;;;;;;13.30;99.90;;;;;;5044525;28;20420;-64
2023/10/08 06:23:22;;;;;;;9.02;1.17;;;13.40;99.90;;;;;;5046817;28;19966;-64
2023/10/08 06:26:25;;;;;;;7.43;1.40;;;13.40;99.90;;;;;;5040131;28;20056;-64
2023/10/08 06:28:44;;;;;;;6.50;1.30;;;13.30;99.90;;;;;;5044059;28;20044;-65
2023/10/08 06:31:17;;;;;;;6.53;1.48;;;13.40;99.90;;;;;;5048996;28;20056;-65
2023/10/08 06:33:44;;;;;;;8.35;1.52;;;13.40;99.90;;;;;;5046157;28;20445;-65
2023/10/08 06:38:40;;;;;;;10.88;1.80;;;13.40;99.90;;;;;;5050174;28;20084;-65
2023/10/08 06:43:47;;;;;;;6.22;1.25;;;13.40;99.90;;;;;;5051815;28;20221;-65
2023/10/08 06:46:13;;;;;;;5.13;1.55;;;13.40;99.90;;;;;;5049412;28;20053;-65
2023/10/08 06:48:43;;;;;;;5.38;1.15;;;13.40;99.90;;;;;;5051817;28;20065;-65
2023/10/08 06:51:17;;;;;;;5.45;1.38;;;13.40;99.90;;;;;;5056336;28;20129;-65
2023/10/08 06:53:47;;;;;;;8.52;1.55;;;13.40;99.90;;;;;;5047705;28;20052;-65
2023/10/08 06:56:15;;;;;;;6.63;1.40;;;13.40;99.90;;;;;;5040349;28;20045;-65
2023/10/08 06:58:48;;;;;;;9.35;1.65;;;13.40;99.90;;;;;;5053718;28;20053;-66
2023/10/08 07:01:24;;;;;;;7.38;1.20;;;13.40;99.90;;;;;;5054745;28;20120;-64
2023/10/08 07:04:03;;;;;;;6.70;1.30;;;13.50;99.90;;;;;;5070978;28;20048;-63
2023/10/08 07:06:33;;;;;;;4.63;1.42;;;13.40;99.90;;;;;;5048681;28;20063;-64
2023/10/08 07:09:04;;;;;;;8.25;1.70;;;13.50;99.90;;;;;;5061444;28;20123;-64
2023/10/08 07:11:44;;;;;;;6.22;1.77;;;13.50;99.90;;;;;;5036672;28;20039;-64
2023/10/08 07:14:10;;;;;;;10.73;1.58;;;13.50;99.90;;;;;;5044000;28;20056;-64
2023/10/08 07:16:36;;;;;;;9.65;1.70;;;13.50;99.90;;;;;;5051108;28;20047;-64
2023/10/08 07:19:03;;;;;;;9.32;1.67;;;13.50;99.90;;;;;;5065915;28;20405;-64
2023/10/08 07:21:29;;;;;;;9.82;1.58;;;13.50;99.90;;;;;;5065743;28;20052;-65
2023/10/08 07:24:01;;;;;;;8.85;1.52;;;13.50;99.90;;;;;;5065021;28;20128;-64
2023/10/08 07:26:35;;;;;;;5.93;1.33;;;13.60;99.90;;;;;;5063010;28;20604;-64
2023/10/08 07:29:07;;;;;;;8.82;1.48;;;13.60;99.90;;;;;;5063424;28;20048;-65
2023/10/08 07:31:36;;;;;;;7.80;1.70;;;13.60;99.90;;;;;;5065536;28;20087;-64
2023/10/08 07:37:05;;;;;;;8.27;1.58;;;13.60;99.90;;;;;;5023899;28;20728;-64
2023/10/08 07:42:00;;;;;;;4.70;1.20;;;13.60;99.90;;;;;;5065764;28;20907;-64
2023/10/08 07:44:30;;;;;;;6.50;1.10;;;13.60;99.90;;;;;;5065807;28;20132;-64
2023/10/08 07:46:56;;;;;;;8.23;1.35;;;13.60;99.90;;;;;;5065853;28;20412;-65
2023/10/08 07:49:23;;;;;;;10.70;1.42;;;13.60;99.90;;;;;;5065413;28;20060;-65
2023/10/08 07:51:52;;;;;;;10.48;1.42;;;13.60;99.90;;;;;;5062677;28;20421;-64
2023/10/08 07:54:19;;;;;;;6.85;1.42;;;13.60;99.90;;;;;;5066985;28;20052;-64
2023/10/08 07:56:47;;;;;;;9.93;1.40;;;13.60;99.90;;;;;;5064598;28;20048;-65
2023/10/08 07:59:16;;;;;;;6.90;1.20;;;13.60;99.90;;;;;;5065825;28;20052;-64
2023/10/08 08:01:42;;;;;;;8.13;1.60;;;13.60;99.90;;;;;;5064180;28;20052;-65
2023/10/08 08:04:22;;;;;;;12.43;1.80;;;13.60;99.90;;;;;;5065420;28;20040;-65
2023/10/08 08:06:50;;;;;;;8.15;1.58;;;13.50;99.90;;;;;;5066564;28;20052;-65
2023/10/08 08:09:19;;;;;;;6.15;1.08;;;13.60;99.90;;;;;;5066358;28;20058;-64
2023/10/08 08:11:47;;;;;;;8.98;1.48;;;13.50;99.90;;;;;;5063843;28;20048;-65
2023/10/08 08:14:16;;;;;;;9.35;1.80;;;13.50;99.90;;;;;;5049073;28;20037;-65
2023/10/08 08:16:48;;;;;;;12.13;1.95;;;13.60;99.90;;;;;;5049258;28;20040;-64
2023/10/08 08:19:24;;;;;;;7.97;1.10;;;13.60;99.90;;;;;;5065763;28;20398;-64
2023/10/08 08:21:52;;;;;;;6.20;1.35;;;13.60;99.90;;;;;;5066461;28;20033;-64
2023/10/08 08:24:28;;;;;;;9.27;1.83;;;13.60;99.90;;;;;;5064935;28;20040;-64
2023/10/08 08:27:11;;;;;;;8.80;1.20;;;13.60;99.90;;;;;;5066156;28;20041;-65
2023/10/08 08:29:48;;;;;;;10.23;1.42;;;13.70;99.90;;;;;;5066576;28;20052;-64
2023/10/08 08:32:15;;;;;;;8.00;1.35;;;13.70;99.90;;;;;;5064780;28;20048;-64
2023/10/08 08:34:44;;;;;;;10.50;1.65;;;13.70;99.90;;;;;;5065283;28;20044;-64
2023/10/08 08:37:11;;;;;;;9.48;1.50;;;13.50;99.90;;;;;;5065431;28;20039;-64
2023/10/08 08:39:38;;;;;;;7.00;1.52;;;13.70;99.90;;;;;;5065002;28;20051;-64
2023/10/08 08:42:04;;;;;;;10.60;1.98;;;13.80;99.90;;;;;;5063322;28;20045;-64
2023/10/08 08:44:32;;;;;;;4.65;1.20;;;13.80;99.90;;;;;;5066350;28;20138;-64
2023/10/08 08:47:04;;;;;;;10.15;1.70;;;13.80;99.90;;;;;;5079919;28;20049;-65
2023/10/08 08:49:34;;;;;;;10.23;1.40;;;13.80;99.90;;;;;;5065005;28;20432;-64
2023/10/08 08:52:00;;;;;;;9.65;1.75;;;13.90;99.90;;;;;;5064540;28;20088;-65
2023/10/08 08:54:30;;;;;;;10.35;1.38;;;13.90;99.90;;;;;;5064787;28;20036;-64
2023/10/08 08:57:02;;;;;;;7.70;1.75;;;13.90;99.90;;;;;;5063799;28;20109;-65
2023/10/08 08:59:30;;;;;;;8.00;2.15;;;13.90;99.90;;;;;;5066444;28;20111;-64
2023/10/08 09:01:59;;;;;;;6.93;1.77;;;13.90;99.90;;;;;;5063588;28;20493;-64
2023/10/08 09:04:32;;;;;;;9.88;1.75;;;14.00;99.90;;;;;;5064541;28;20081;-65
2023/10/08 09:07:04;;;;;;;10.48;1.63;;;14.00;99.90;;;;;;5062674;28;20076;-64
2023/10/08 09:09:44;;;;;;;10.88;1.50;;;14.00;99.90;;;;;;5065553;28;20448;-64
2023/10/08 09:12:10;;;;;;;19.42;2.55;;;14.00;99.90;;;;;;5063026;28;20094;-64
2023/10/08 09:14:37;;;;;;;10.45;1.73;;;14.00;99.90;;;;;;5047431;28;20044;-64
2023/10/08 09:17:05;;;;;;;7.70;1.52;;;14.00;99.90;;;;;;5064256;28;20799;-64
2023/10/08 09:19:36;;;;;;;8.55;1.63;;;14.10;99.90;;;;;;5064826;28;20412;-64
2023/10/08 09:22:11;;;;;;;9.27;1.42;;;14.10;99.90;;;;;;5062405;28;20513;-66
2023/10/08 09:24:39;;;;;;;12.02;1.55;;;14.10;99.90;;;;;;5061620;28;20521;-64
2023/10/08 09:27:08;;;;;;;7.53;1.55;;;14.20;99.90;;;;;;5058278;28;20040;-64
2023/10/08 09:29:41;;;;;;;9.07;1.98;;;14.20;99.90;;;;;;5066758;28;20036;-64
2023/10/08 09:32:11;;;;;;;10.32;1.60;;;14.30;99.90;;;;;;5066439;28;20413;-64
2023/10/08 09:34:37;;;;;;;13.00;1.52;;;14.30;99.90;;;;;;5065971;28;20052;-64
2023/10/08 09:37:03;;;;;;;9.05;1.60;;;14.40;99.90;;;;;;5065269;28;20044;-64
2023/10/08 09:39:33;;;;;;;10.48;2.35;;;14.40;99.90;;;;;;5066740;28;20405;-64
2023/10/08 09:42:03;;;;;;;8.63;1.53;;;14.40;99.90;;;;;;5066275;28;20543;-64
2023/10/08 09:44:30;;;;;;;8.18;1.60;;;14.30;99.90;;;;;;5066528;28;20045;-64
2023/10/08 09:47:06;;;;;;;8.63;1.55;;;14.40;99.90;;;;;;5066378;28;20079;-64
2023/10/08 09:49:41;;;;;;;13.23;1.55;;;14.40;99.90;;;;;;5065482;28;20207;-64
2023/10/08 09:52:07;;;;;;;11.27;1.88;;;14.40;99.90;;;;;;5066342;28;20145;-64
2023/10/08 09:54:56;;;;;;;10.10;1.45;;;14.40;99.90;;;;;;5082161;28;20044;-64
2023/10/08 09:57:26;;;;;;;12.15;2.45;;;14.40;99.90;;;;;;5065226;28;20047;-64
2023/10/08 09:59:53;;;;;;;13.77;2.63;;;14.40;99.90;;;;;;5065075;28;20048;-64
2023/10/08 10:02:22;;;;;;;8.90;1.50;;;14.50;99.90;;;;;;5063636;28;20120;-64
2023/10/08 10:04:53;;;;;;;14.18;1.48;;;14.50;99.90;;;;;;5066614;28;20045;-64
2023/10/08 10:07:20;;;;;;;10.00;1.50;;;14.50;99.90;;;;;;5065105;28;20055;-65
2023/10/08 10:09:50;;;;;;;13.57;2.35;;;14.60;99.90;;;;;;5066375;28;20041;-64
2023/10/08 10:12:26;;;;;;;8.00;1.42;;;14.60;99.90;;;;;;5066000;28;20123;-65
2023/10/08 10:14:56;;;;;;;9.23;1.52;;;14.70;99.90;;;;;;5067194;28;20040;-65
2023/10/08 10:17:25;;;;;;;8.05;1.27;;;14.70;99.90;;;;;;5071958;28;20265;-64
2023/10/08 10:19:55;;;;;;;11.52;1.83;;;14.70;99.90;;;;;;5068136;28;20100;-65
2023/10/08 10:22:35;;;;;;;7.75;1.23;;;14.70;99.90;;;;;;5052419;28;20068;-64
2023/10/08 10:25:14;;;;;;;10.52;2.15;;;14.70;99.90;;;;;;5052164;28;20464;-65
2023/10/08 10:28:00;;;;;;;12.55;1.83;;;14.70;99.90;;;;;;5069233;28;20048;-64
2023/10/08 10:30:27;;;;;;;8.23;1.52;;;14.70;99.90;;;;;;5053132;28;20118;-65
2023/10/08 10:32:54;;;;;;;10.65;1.50;;;14.70;99.90;;;;;;5068329;28;20036;-65
2023/10/08 10:35:20;;;;;;;14.98;1.80;;;14.70;99.90;;;;;;5069959;28;20124;-65
2023/10/08 10:37:52;;;;;;;10.23;1.35;;;14.80;99.90;;;;;;5068700;28;20135;-65
2023/10/08 10:40:40;;;;;;;5.80;1.08;;;14.80;99.90;;;;;;5062323;28;20040;-65
2023/10/08 10:43:15;;;;;;;15.68;1.70;;;14.90;99.90;;;;;;5068613;28;20044;-64
2023/10/08 10:45:44;;;;;;;13.93;1.70;;;14.90;99.90;;;;;;5068023;28;20043;-65
2023/10/08 10:51:29;;;;;;;15.85;1.55;;;15.00;99.90;;;;;;5069741;28;20063;-65
2023/10/08 10:54:00;;;;;;;11.52;1.63;;;15.00;99.90;;;;;;5066367;28;20044;-65
2023/10/08 10:56:39;;;;;;;;;;;15.10;99.90;;;;;;5069905;28;20037;-65
2023/10/08 10:59:18;;;;;;;6.97;1.45;;;15.00;99.90;;;;;;5068972;28;19975;-64
2023/10/08 11:02:05;;;;;;;9.43;1.50;;;15.10;99.90;;;;;;5051537;28;20056;-65
2023/10/08 11:04:31;;;;;;;10.65;1.60;;;15.10;99.90;;;;;;5069068;28;20052;-65
2023/10/08 11:06:58;;;;;;;8.18;1.38;;;15.20;99.90;;;;;;5067992;28;20106;-65
2023/10/08 11:09:58;;;;;;;9.95;1.70;;;15.30;99.90;;;;;;5069587;28;20071;-65
2023/10/08 11:12:22;;;;;;;6.30;1.50;;;15.30;99.90;;;;;;5062832;28;20053;-65
2023/10/08 11:14:51;;;;;;;11.85;2.33;;;15.40;99.90;;;;;;5068870;28;20209;-65
2023/10/08 11:17:24;;;;;;;18.52;2.03;;;15.40;99.90;;;;;;5068696;28;20521;-65
2023/10/08 11:19:50;;;;;;;6.18;1.52;;;15.40;99.90;;;;;;5069269;28;20402;-65
2023/10/08 11:22:18;;;;;;;9.75;1.50;;;15.40;99.90;;;;;;5067449;28;20652;-65
2023/10/08 11:24:47;;;;;;;9.68;1.65;;;15.50;99.90;;;;;;5069047;28;20504;-65
2023/10/08 11:27:28;;;;;;;9.43;1.60;;;15.50;99.90;;;;;;5068263;28;20041;-65
2023/10/08 11:29:59;;;;;;;13.05;1.83;;;15.50;99.90;;;;;;5065470;28;20053;-65
2023/10/08 11:32:26;;;;;;;10.82;1.40;;;15.50;99.90;;;;;;5067077;28;20084;-65
2023/10/08 11:34:59;;;;;;;8.55;1.48;;;15.50;99.90;;;;;;5068813;28;20041;-65
2023/10/08 11:37:35;;;;;;;9.80;1.95;;;15.50;99.90;;;;;;5067520;28;20040;-65
2023/10/08 11:40:13;;;;;;;7.95;1.15;;;15.50;99.90;;;;;;5076544;28;20051;-65
2023/10/08 11:45:18;;;;;;;8.02;1.38;;;15.60;99.90;;;;;;5068812;28;20479;-65
2023/10/08 11:47:55;;;;;;;9.93;2.30;;;15.60;99.90;;;;;;5068541;28;20048;-65
2023/10/08 11:50:32;;;;;;;7.10;1.10;;;15.60;99.90;;;;;;5067048;28;20055;-65
2023/10/08 11:53:02;;;;;;;11.82;1.73;;;15.60;99.90;;;;;;5068343;28;20076;-65
2023/10/08 11:55:29;;;;;;;13.50;2.50;;;15.60;99.90;;;;;;5067137;28;20062;-65
2023/10/08 11:57:55;;;;;;;6.00;1.30;;;15.60;99.90;;;;;;5068321;28;20063;-65
2023/10/08 12:00:27;;;;;;;8.68;1.13;;;15.60;99.90;;;;;;5068226;28;20040;-65
2023/10/08 12:02:54;;;;;;;12.32;1.63;;;15.60;99.90;;;;;;5067404;28;20040;-65
2023/10/08 12:05:23;;;;;;;7.55;1.95;;;15.60;99.90;;;;;;5068433;28;20044;-65
2023/10/08 12:07:55;;;;;;;7.57;1.50;;;15.60;99.90;;;;;;5066892;28;20057;-65
2023/10/08 12:10:22;;;;;;;10.50;1.48;;;15.60;99.90;;;;;;5065141;28;20053;-65
2023/10/08 12:12:52;;;;;;;12.23;1.80;;;15.60;99.90;;;;;;5066844;28;20052;-65
2023/10/08 12:15:22;;;;;;;8.93;1.63;;;15.60;99.90;;;;;;5066435;28;20448;-65
2023/10/08 12:18:11;;;;;;;10.55;1.80;;;15.60;99.90;;;;;;5066759;28;20135;-65
2023/10/08 12:20:38;;;;;;;7.45;1.83;;;15.70;99.90;;;;;;5066701;28;20451;-64
2023/10/08 12:23:05;;;;;;;7.47;1.23;;;15.60;99.90;;;;;;5066592;28;20055;-65
2023/10/08 12:25:32;;;;;;;10.85;1.63;;;15.70;99.90;;;;;;5067559;28;20060;-65
2023/10/08 12:28:03;;;;;;;10.80;1.60;;;15.70;99.90;;;;;;5068107;28;20413;-65
2023/10/08 12:30:34;;;;;;;11.43;1.73;;;15.70;99.90;;;;;;5066270;28;20048;-65
2023/10/08 12:33:00;;;;;;;12.75;1.25;;;15.80;99.90;;;;;;5066343;28;20056;-66
2023/10/08 12:35:29;;;;;;;9.80;1.75;;;15.80;99.90;;;;;;5066591;28;20577;-65
2023/10/08 12:37:55;;;;;;;8.02;1.40;;;15.80;99.90;;;;;;5067573;28;20078;-65
2023/10/08 12:40:23;;;;;;;10.70;1.65;;;15.90;99.90;;;;;;5067240;28;20087;-65
2023/10/08 12:43:04;;;;;;;10.98;1.77;;;15.90;99.90;;;;;;5104037;27;20420;-65
2023/10/08 12:45:31;;;;;;;8.63;1.48;;;15.90;99.90;;;;;;5102321;28;20630;-66
2023/10/08 12:47:57;;;;;;;9.10;1.73;;;16.00;99.90;;;;;;5102857;28;20658;-65
2023/10/08 12:50:29;;;;;;;10.88;1.65;;;16.00;99.90;;;;;;5103938;28;20404;-65
2023/10/08 12:53:03;;;;;;;9.07;1.50;;;15.90;99.90;;;;;;5103010;28;20408;-65
2023/10/08 12:55:30;;;;;;;11.35;1.55;;;16.00;99.90;;;;;;5103506;28;20058;-65
2023/10/08 12:58:05;;;;;;;8.30;1.50;;;16.10;99.90;;;;;;5086131;28;20131;-66
2023/10/08 13:00:32;;;;;;;7.50;1.42;;;16.10;99.90;;;;;;5102677;28;20120;-65
2023/10/08 13:02:57;;;;;;;8.20;1.30;;;16.10;99.90;;;;;;5085571;28;20040;-65
2023/10/08 13:05:30;;;;;;;10.40;1.50;;;16.10;99.90;;;;;;5085891;28;20124;-65
2023/10/08 13:07:57;;;;;;;12.30;1.63;;;16.20;99.90;;;;;;5102842;28;20055;-65
2023/10/08 13:10:23;;;;;;;9.50;1.38;;;16.20;99.90;;;;;;5103983;28;20583;-66
2023/10/08 13:12:49;;;;;;;6.57;1.27;;;16.20;99.90;;;;;;5102467;28;20044;-65
2023/10/08 13:15:15;;;;;;;13.35;1.50;;;16.20;99.90;;;;;;5103926;28;20040;-65
2023/10/08 13:17:45;;;;;;;6.88;1.30;;;16.10;99.90;;;;;;5102161;28;20040;-65
2023/10/08 13:20:13;;;;;;;10.20;1.50;;;16.20;99.90;;;;;;5102900;28;20109;-65
2023/10/08 13:22:39;;;;;;;8.73;1.33;;;16.20;99.90;;;;;;5102532;28;20048;-66
2023/10/08 13:25:06;;;;;;;10.73;1.50;;;16.20;99.90;;;;;;5102052;28;20407;-66
2023/10/08 13:27:32;;;;;;;12.63;1.85;;;16.20;99.90;;;;;;5085624;28;20135;-65
2023/10/08 13:29:58;;;;;;;11.60;2.10;;;16.20;99.90;;;;;;5101963;28;20150;-65
2023/10/08 13:32:24;;;;;;;14.52;1.65;;;16.20;99.90;;;;;;5099788;28;20050;-66
2023/10/08 13:34:50;;;;;;;7.78;1.40;;;16.20;99.90;;;;;;5103210;27;20047;-65
2023/10/08 13:37:16;;;;;;;10.52;2.20;;;16.10;99.90;;;;;;5100845;28;20044;-66
2023/10/08 13:39:42;;;;;;;9.40;1.48;;;16.10;99.90;;;;;;5102196;28;20043;-66
2023/10/08 13:42:08;;;;;;;8.35;1.75;;;16.00;99.90;;;;;;5099856;28;20396;-66
2023/10/08 13:44:35;;;;;;;9.88;1.75;;;16.10;99.90;;;;;;5098459;28;20101;-65
2023/10/08 13:47:05;;;;;;;9.43;1.58;;;16.00;99.90;;;;;;5102775;28;20132;-66
2023/10/08 13:49:32;;;;;;;7.50;1.52;;;16.00;99.90;;;;;;5091931;28;20063;-65
2023/10/08 13:51:58;;;;;;;10.13;1.50;;;16.10;99.90;;;;;;5100767;28;20051;-66
2023/10/08 13:54:29;;;;;;;10.13;1.73;;;16.10;99.90;;;;;;5087954;28;20036;-66
2023/10/08 13:56:58;;;;;;;9.35;1.73;;;16.10;99.90;;;;;;5065735;28;20048;-65
2023/10/08 13:59:24;;;;;;;10.40;1.90;;;16.10;99.90;;;;;;5086957;28;20082;-66
2023/10/08 14:01:54;;;;;;;7.60;1.48;;;16.10;99.90;;;;;;5088198;28;20043;-65
2023/10/08 14:04:26;;;;;;;8.45;1.25;;;16.00;99.90;;;;;;5085933;28;20051;-66
2023/10/08 14:06:51;;;;;;;12.35;1.50;;;16.00;99.90;;;;;;5087759;28;20140;-66
2023/10/08 14:09:22;;;;;;;6.78;1.40;;;16.00;99.90;;;;;;5087515;28;20110;-65
2023/10/08 14:11:52;;;;;;;8.05;1.60;;;16.00;99.90;;;;;;5082635;28;20055;-65
2023/10/08 14:14:19;;;;;;;9.75;1.60;;;16.00;99.90;;;;;;5083071;28;20061;-65
2023/10/08 14:16:52;;;;;;;7.60;1.30;;;16.00;99.90;;;;;;5081715;28;20040;-65
2023/10/08 14:19:22;;;;;;;8.55;1.60;;;16.00;99.90;;;;;;5089810;28;20410;-65
2023/10/08 14:22:00;;;;;;;9.63;1.88;;;16.00;99.90;;;;;;5090695;28;20377;-65
2023/10/08 14:24:29;;;;;;;6.80;1.70;;;16.00;99.90;;;;;;5089334;28;20086;-65
2023/10/08 14:26:57;;;;;;;13.45;2.17;;;16.00;99.90;;;;;;5090165;28;20048;-65
2023/10/08 14:29:26;;;;;;;6.63;1.05;;;16.00;99.90;;;;;;5088668;28;20520;-65
2023/10/08 14:31:55;;;;;;;7.88;1.30;;;16.00;99.90;;;;;;5081321;28;20714;-65